Time,TemperatureF,DewpointF,PressureIn,WindDirection,WindDirectionDegrees,WindSpeedMPH,WindSpeedGustMPH,Humidity,HourlyPrecipIn,Conditions,Clouds,dailyrainin,SoftwareType,DateUTC
2013-03-20 00:03:00,52.4,49.3,30.22,SE,128,2.0,9.0,89,0.00,,,0.00,Wunderground v.1.15,2013-03-20 07:03:00,
2013-03-20 00:08:00,52.4,49.3,30.23,SE,124,4.0,9.0,89,0.00,,,0.01,Wunderground v.1.15,2013-03-20 07:08:00,
2013-03-20 00:13:00,52.5,49.4,30.23,SE,125,3.0,6.0,89,0.00,,,0.01,Wunderground v.1.15,2013-03-20 07:13:00,
2013-03-20 00:19:00,52.4,49.3,30.22,SE,140,0.0,6.0,89,0.00,,,0.01,Wunderground v.1.15,2013-03-20 07:19:00,
2013-03-20 00:24:00,52.4,49.3,30.22,SE,134,5.0,5.0,89,0.00,,,0.01,Wunderground v.1.15,2013-03-20 07:24:00,
2013-03-20 00:30:00,52.5,49.4,30.23,SE,144,3.0,3.0,89,0.00,,,0.02,Wunderground v.1.15,2013-03-20 07:30:00,
2013-03-20 00:36:00,52.4,49.3,30.23,SE,145,0.0,3.0,89,0.00,,,0.02,Wunderground v.1.15,2013-03-20 07:36:00,
2013-03-20 00:42:00,52.5,49.4,30.23,SE,145,0.0,1.0,89,0.00,,,0.02,Wunderground v.1.15,2013-03-20 07:42:00,
2013-03-20 00:47:00,52.4,49.3,30.22,SE,145,0.0,1.0,89,0.04,,,0.03,Wunderground v.1.15,2013-03-20 07:47:00,
2013-03-20 00:52:00,52.3,49.2,30.22,SE,145,0.0,0.0,89,0.04,,,0.03,Wunderground v.1.15,2013-03-20 07:52:00,
2013-03-20 00:57:00,52.2,49.4,30.22,SE,145,0.0,0.0,90,0.04,,,0.03,Wunderground v.1.15,2013-03-20 07:57:00,
2013-03-20 01:03:00,52.2,49.4,30.21,SE,145,0.0,0.0,90,0.00,,,0.03,Wunderground v.1.15,2013-03-20 08:03:00,
2013-03-20 01:09:00,52.3,49.5,30.21,SE,145,0.0,0.0,90,0.00,,,0.03,Wunderground v.1.15,2013-03-20 08:09:00,
2013-03-20 01:14:00,52.2,49.4,30.21,SE,145,0.0,1.0,90,0.00,,,0.04,Wunderground v.1.15,2013-03-20 08:14:00,
2013-03-20 01:19:00,52.4,49.6,30.20,SE,145,0.0,2.0,90,0.00,,,0.04,Wunderground v.1.15,2013-03-20 08:19:00,
2013-03-20 01:24:00,52.7,49.8,30.20,SE,144,3.0,3.0,90,0.00,,,0.04,Wunderground v.1.15,2013-03-20 08:24:00,
2013-03-20 01:30:00,52.8,49.9,30.20,SE,144,0.0,1.0,90,0.00,,,0.05,Wunderground v.1.15,2013-03-20 08:30:00,
2013-03-20 01:35:00,52.9,50.0,30.21,SE,144,2.0,3.0,90,0.00,,,0.05,Wunderground v.1.15,2013-03-20 08:35:00,
2013-03-20 01:40:00,52.9,50.0,30.21,SE,144,0.0,1.0,90,0.00,,,0.05,Wunderground v.1.15,2013-03-20 08:40:00,
2013-03-20 01:46:00,52.9,50.3,30.21,SE,144,0.0,2.0,91,0.00,,,0.05,Wunderground v.1.15,2013-03-20 08:46:00,
2013-03-20 01:52:00,52.9,50.3,30.22,SSE,152,4.0,4.0,91,0.00,,,0.05,Wunderground v.1.15,2013-03-20 08:52:00,
2013-03-20 01:57:00,52.9,50.3,30.22,SW,219,5.0,7.0,91,0.00,,,0.05,Wunderground v.1.15,2013-03-20 08:57:00,
2013-03-20 02:02:00,52.8,50.2,30.22,SW,236,10.0,10.0,91,0.00,,,0.06,Wunderground v.1.15,2013-03-20 09:02:00,
2013-03-20 02:07:00,51.9,49.4,30.23,WSW,240,6.0,13.0,91,0.00,,,0.06,Wunderground v.1.15,2013-03-20 09:07:00,
2013-03-20 02:12:00,51.1,48.6,30.23,SW,234,7.0,14.0,91,0.00,,,0.06,Wunderground v.1.15,2013-03-20 09:12:00,
2013-03-20 02:17:00,50.3,47.5,30.23,SW,225,8.0,14.0,90,0.00,,,0.06,Wunderground v.1.15,2013-03-20 09:17:00,
2013-03-20 02:22:00,50.1,47.6,30.24,SW,227,5.0,9.0,91,0.00,,,0.06,Wunderground v.1.15,2013-03-20 09:22:00,
2013-03-20 02:27:00,50.0,47.5,30.24,SW,229,6.0,12.0,91,0.00,,,0.06,Wunderground v.1.15,2013-03-20 09:27:00,
2013-03-20 02:33:00,49.9,47.4,30.24,SW,229,5.0,7.0,91,0.00,,,0.07,Wunderground v.1.15,2013-03-20 09:33:00,
2013-03-20 02:38:00,49.9,47.4,30.23,SW,227,6.0,7.0,91,0.00,,,0.07,Wunderground v.1.15,2013-03-20 09:38:00,
2013-03-20 02:43:00,49.9,47.4,30.24,SW,227,5.0,6.0,91,0.00,,,0.07,Wunderground v.1.15,2013-03-20 09:43:00,
2013-03-20 02:48:00,50.0,47.5,30.23,SW,227,4.0,6.0,91,0.00,,,0.07,Wunderground v.1.15,2013-03-20 09:48:00,
2013-03-20 02:53:00,50.0,47.5,30.23,SW,225,4.0,6.0,91,0.00,,,0.07,Wunderground v.1.15,2013-03-20 09:53:00,
2013-03-20 02:58:00,50.0,48.6,30.23,SW,223,3.0,6.0,95,0.00,,,0.07,Wunderground v.1.15,2013-03-20 09:58:00,
2013-03-20 03:03:00,49.9,47.4,30.23,SSW,199,1.0,9.0,91,0.00,,,0.07,Wunderground v.1.15,2013-03-20 10:03:00,
2013-03-20 03:08:00,49.8,47.3,30.23,South,191,5.0,9.0,91,0.00,,,0.07,Wunderground v.1.15,2013-03-20 10:08:00,
2013-03-20 03:13:00,49.8,47.3,30.23,South,190,2.0,5.0,91,0.00,,,0.08,Wunderground v.1.15,2013-03-20 10:13:00,
2013-03-20 03:18:00,49.8,47.3,30.23,South,190,2.0,6.0,91,0.00,,,0.08,Wunderground v.1.15,2013-03-20 10:18:00,
2013-03-20 03:23:00,49.8,47.3,30.23,South,191,0.0,3.0,91,0.00,,,0.08,Wunderground v.1.15,2013-03-20 10:23:00,
2013-03-20 03:28:00,49.9,47.4,30.22,South,190,1.0,3.0,91,0.00,,,0.08,Wunderground v.1.15,2013-03-20 10:28:00,
2013-03-20 03:33:00,49.9,47.4,30.22,South,190,0.0,1.0,91,0.00,,,0.08,Wunderground v.1.15,2013-03-20 10:33:00,
2013-03-20 03:38:00,50.0,47.8,30.22,South,190,0.0,2.0,92,0.00,,,0.08,Wunderground v.1.15,2013-03-20 10:38:00,
2013-03-20 03:43:00,50.0,47.8,30.22,South,190,0.0,0.0,92,0.00,,,0.09,Wunderground v.1.15,2013-03-20 10:43:00,
2013-03-20 03:48:00,50.1,47.9,30.22,South,190,2.0,3.0,92,0.00,,,0.09,Wunderground v.1.15,2013-03-20 10:48:00,
2013-03-20 03:53:00,50.1,47.9,30.22,South,190,4.0,4.0,92,0.00,,,0.09,Wunderground v.1.15,2013-03-20 10:53:00,
2013-03-20 03:59:00,50.2,48.0,30.22,South,190,0.0,4.0,92,0.00,,,0.09,Wunderground v.1.15,2013-03-20 10:59:00,
2013-03-20 04:04:00,50.3,48.1,30.21,South,190,1.0,2.0,92,0.00,,,0.09,Wunderground v.1.15,2013-03-20 11:04:00,
2013-03-20 04:10:00,50.4,48.2,30.21,South,190,2.0,2.0,92,0.00,,,0.09,Wunderground v.1.15,2013-03-20 11:10:00,
2013-03-20 04:15:00,50.4,48.2,30.21,South,190,0.0,5.0,92,0.00,,,0.09,Wunderground v.1.15,2013-03-20 11:15:00,
2013-03-20 04:20:00,50.4,48.2,30.21,South,190,1.0,2.0,92,0.00,,,0.09,Wunderground v.1.15,2013-03-20 11:20:00,
2013-03-20 04:25:00,50.5,48.3,30.20,South,190,0.0,3.0,92,0.00,,,0.09,Wunderground v.1.15,2013-03-20 11:25:00,
2013-03-20 04:30:00,50.6,48.4,30.21,South,190,0.0,0.0,92,0.00,,,0.10,Wunderground v.1.15,2013-03-20 11:30:00,
2013-03-20 04:35:00,50.7,48.5,30.21,South,190,0.0,0.0,92,0.00,,,0.10,Wunderground v.1.15,2013-03-20 11:35:00,
2013-03-20 04:40:00,50.8,48.6,30.20,South,190,0.0,0.0,92,0.00,,,0.10,Wunderground v.1.15,2013-03-20 11:40:00,
2013-03-20 04:45:00,51.0,48.8,30.20,South,190,0.0,0.0,92,0.00,,,0.10,Wunderground v.1.15,2013-03-20 11:45:00,
2013-03-20 04:50:00,51.0,48.8,30.20,South,188,0.0,0.0,92,0.00,,,0.10,Wunderground v.1.15,2013-03-20 11:50:00,
2013-03-20 04:55:00,51.0,48.8,30.19,South,189,0.0,0.0,92,0.00,,,0.10,Wunderground v.1.15,2013-03-20 11:55:00,
2013-03-20 05:00:00,51.0,48.8,30.20,South,189,0.0,0.0,92,0.00,,,0.11,Wunderground v.1.15,2013-03-20 12:00:00,
2013-03-20 05:05:00,51.0,48.8,30.19,South,188,0.0,2.0,92,0.00,,,0.11,Wunderground v.1.15,2013-03-20 12:05:00,
2013-03-20 05:10:00,51.0,48.8,30.19,South,178,4.0,4.0,92,0.00,,,0.11,Wunderground v.1.15,2013-03-20 12:10:00,
2013-03-20 05:15:00,51.0,48.8,30.19,South,175,0.0,5.0,92,0.00,,,0.11,Wunderground v.1.15,2013-03-20 12:15:00,
2013-03-20 05:20:00,51.0,48.8,30.19,South,173,0.0,1.0,92,0.00,,,0.11,Wunderground v.1.15,2013-03-20 12:20:00,
2013-03-20 05:25:00,51.2,49.2,30.20,South,173,1.0,3.0,93,0.00,,,0.11,Wunderground v.1.15,2013-03-20 12:25:00,
2013-03-20 05:30:00,51.2,49.2,30.20,South,173,0.0,0.0,93,0.00,,,0.11,Wunderground v.1.15,2013-03-20 12:30:00,
2013-03-20 05:35:00,51.3,49.3,30.20,South,173,0.0,0.0,93,0.00,,,0.11,Wunderground v.1.15,2013-03-20 12:35:00,
2013-03-20 05:40:00,51.4,49.4,30.20,South,173,0.0,0.0,93,0.00,,,0.11,Wunderground v.1.15,2013-03-20 12:40:00,
2013-03-20 05:45:00,51.5,49.3,30.20,South,173,0.0,0.0,92,0.00,,,0.12,Wunderground v.1.15,2013-03-20 12:45:00,
2013-03-20 05:50:00,51.7,49.7,30.21,South,173,2.0,2.0,93,0.00,,,0.12,Wunderground v.1.15,2013-03-20 12:50:00,
2013-03-20 05:55:00,51.6,49.6,30.20,South,173,1.0,6.0,93,0.00,,,0.12,Wunderground v.1.15,2013-03-20 12:55:00,
2013-03-20 06:00:00,51.5,49.5,30.20,South,174,0.0,2.0,93,0.00,,,0.12,Wunderground v.1.15,2013-03-20 13:00:00,
2013-03-20 06:05:00,51.5,49.5,30.20,South,174,0.0,4.0,93,0.00,,,0.12,Wunderground v.1.15,2013-03-20 13:05:00,
2013-03-20 06:10:00,51.5,49.5,30.20,South,174,0.0,0.0,93,0.00,,,0.13,Wunderground v.1.15,2013-03-20 13:10:00,
2013-03-20 06:15:00,51.5,49.5,30.21,South,174,0.0,2.0,93,0.00,,,0.13,Wunderground v.1.15,2013-03-20 13:15:00,
2013-03-20 06:20:00,51.5,49.5,30.21,South,173,0.0,0.0,93,0.00,,,0.13,Wunderground v.1.15,2013-03-20 13:20:00,
2013-03-20 06:25:00,51.6,49.6,30.20,South,174,0.0,0.0,93,0.00,,,0.13,Wunderground v.1.15,2013-03-20 13:25:00,
2013-03-20 06:30:00,51.8,49.8,30.20,South,174,0.0,0.0,93,0.00,,,0.13,Wunderground v.1.15,2013-03-20 13:30:00,
2013-03-20 06:35:00,51.9,49.9,30.20,South,173,0.0,5.0,93,0.00,,,0.13,Wunderground v.1.15,2013-03-20 13:35:00,
2013-03-20 06:40:00,51.9,49.9,30.20,South,172,0.0,5.0,93,0.00,,,0.13,Wunderground v.1.15,2013-03-20 13:40:00,
2013-03-20 06:45:00,52.0,50.0,30.20,SSE,164,1.0,7.0,93,0.00,,,0.13,Wunderground v.1.15,2013-03-20 13:45:00,
2013-03-20 06:50:00,52.1,50.1,30.20,SSE,163,0.0,3.0,93,0.00,,,0.13,Wunderground v.1.15,2013-03-20 13:50:00,
2013-03-20 06:55:00,52.4,50.4,30.20,SSE,159,0.0,6.0,93,0.00,,,0.14,Wunderground v.1.15,2013-03-20 13:55:00,
2013-03-20 07:00:00,52.4,50.4,30.20,SSE,157,2.0,9.0,93,0.00,,,0.14,Wunderground v.1.15,2013-03-20 14:00:00,
2013-03-20 07:06:00,52.5,50.5,30.20,SSE,157,3.0,9.0,93,0.00,,,0.14,Wunderground v.1.15,2013-03-20 14:06:00,
2013-03-20 07:11:00,52.5,50.5,30.20,SSE,161,0.0,7.0,93,0.00,,,0.14,Wunderground v.1.15,2013-03-20 14:11:00,
2013-03-20 07:16:00,52.6,50.6,30.21,SSE,160,3.0,7.0,93,0.00,,,0.14,Wunderground v.1.15,2013-03-20 14:16:00,
2013-03-20 07:21:00,52.7,50.7,30.21,SSE,163,3.0,5.0,93,0.00,,,0.14,Wunderground v.1.15,2013-03-20 14:21:00,
2013-03-20 07:26:00,52.9,50.9,30.20,SSE,152,4.0,6.0,93,0.00,,,0.15,Wunderground v.1.15,2013-03-20 14:26:00,
2013-03-20 07:31:00,53.1,51.1,30.20,SE,129,1.0,12.0,93,0.00,,,0.15,Wunderground v.1.15,2013-03-20 14:31:00,
2013-03-20 07:36:00,53.2,51.2,30.20,SE,125,5.0,12.0,93,0.00,,,0.15,Wunderground v.1.15,2013-03-20 14:36:00,
2013-03-20 07:41:00,53.4,51.4,30.20,SE,126,4.0,5.0,93,0.00,,,0.15,Wunderground v.1.15,2013-03-20 14:41:00,
2013-03-20 07:47:00,53.6,51.6,30.20,SE,144,4.0,9.0,93,0.00,,,0.15,Wunderground v.1.15,2013-03-20 14:47:00,
2013-03-20 07:52:00,53.6,51.6,30.21,SE,145,2.0,4.0,93,0.00,,,0.15,Wunderground v.1.15,2013-03-20 14:52:00,
2013-03-20 07:57:00,53.6,51.6,30.20,South,190,0.0,5.0,93,0.00,,,0.15,Wunderground v.1.15,2013-03-20 14:57:00,
2013-03-20 08:02:00,53.7,51.7,30.21,South,175,0.0,1.0,93,0.00,,,0.15,Wunderground v.1.15,2013-03-20 15:02:00,
2013-03-20 08:07:00,53.8,51.8,30.21,South,173,0.0,1.0,93,0.00,,,0.15,Wunderground v.1.15,2013-03-20 15:07:00,
2013-03-20 08:12:00,54.0,52.0,30.21,ESE,112,0.0,6.0,93,0.00,,,0.16,Wunderground v.1.15,2013-03-20 15:12:00,
2013-03-20 08:17:00,54.1,52.1,30.21,ESE,117,3.0,6.0,93,0.00,,,0.16,Wunderground v.1.15,2013-03-20 15:17:00,
2013-03-20 08:22:00,54.2,52.2,30.20,East,81,0.0,3.0,93,0.00,,,0.16,Wunderground v.1.15,2013-03-20 15:22:00,
2013-03-20 08:27:00,54.3,52.3,30.20,ESE,114,5.0,6.0,93,0.00,,,0.16,Wunderground v.1.15,2013-03-20 15:27:00,
2013-03-20 08:32:00,54.3,52.3,30.20,ESE,112,3.0,5.0,93,0.00,,,0.16,Wunderground v.1.15,2013-03-20 15:32:00,
2013-03-20 08:37:00,54.4,52.4,30.20,ESE,111,0.0,5.0,93,0.00,,,0.17,Wunderground v.1.15,2013-03-20 15:37:00,
2013-03-20 08:42:00,54.5,52.5,30.20,ESE,111,5.0,6.0,93,0.00,,,0.17,Wunderground v.1.15,2013-03-20 15:42:00,
2013-03-20 08:47:00,54.6,52.6,30.20,ESE,112,5.0,9.0,93,0.00,,,0.17,Wunderground v.1.15,2013-03-20 15:47:00,
2013-03-20 08:52:00,54.8,52.8,30.20,ESE,114,3.0,7.0,93,0.00,,,0.17,Wunderground v.1.15,2013-03-20 15:52:00,
2013-03-20 08:57:00,55.0,53.0,30.20,ESE,113,5.0,7.0,93,0.00,,,0.17,Wunderground v.1.15,2013-03-20 15:57:00,
2013-03-20 09:02:00,55.0,53.0,30.20,ESE,114,5.0,6.0,93,0.00,,,0.17,Wunderground v.1.15,2013-03-20 16:02:00,
2013-03-20 09:07:00,55.2,53.2,30.20,ESE,119,5.0,10.0,93,0.00,,,0.17,Wunderground v.1.15,2013-03-20 16:07:00,
2013-03-20 09:12:00,55.5,53.5,30.20,ESE,123,6.0,9.0,93,0.00,,,0.17,Wunderground v.1.15,2013-03-20 16:12:00,
2013-03-20 09:17:00,55.7,53.7,30.20,ESE,120,5.0,9.0,93,0.00,,,0.17,Wunderground v.1.15,2013-03-20 16:17:00,
2013-03-20 09:22:00,56.0,54.0,30.20,SE,124,1.0,7.0,93,0.00,,,0.17,Wunderground v.1.15,2013-03-20 16:22:00,
2013-03-20 09:27:00,56.2,53.9,30.20,East,94,0.0,12.0,92,0.00,,,0.18,Wunderground v.1.15,2013-03-20 16:27:00,
2013-03-20 09:32:00,56.4,54.1,30.20,SE,125,3.0,9.0,92,0.00,,,0.18,Wunderground v.1.15,2013-03-20 16:32:00,
2013-03-20 09:37:00,56.6,54.3,30.20,ESE,123,4.0,10.0,92,0.00,,,0.18,Wunderground v.1.15,2013-03-20 16:37:00,
2013-03-20 09:42:00,56.8,54.5,30.19,ESE,123,5.0,10.0,92,0.00,,,0.18,Wunderground v.1.15,2013-03-20 16:42:00,
2013-03-20 09:47:00,57.2,54.6,30.19,SE,133,4.0,12.0,91,0.00,,,0.18,Wunderground v.1.15,2013-03-20 16:47:00,
2013-03-20 09:52:00,57.5,54.9,30.19,SE,140,3.0,10.0,91,0.00,,,0.18,Wunderground v.1.15,2013-03-20 16:52:00,
2013-03-20 09:57:00,57.9,55.3,30.19,SSE,159,5.0,10.0,91,0.00,,,0.19,Wunderground v.1.15,2013-03-20 16:57:00,
2013-03-20 10:02:00,58.0,54.8,30.20,SE,145,13.0,14.0,89,0.00,,,0.19,Wunderground v.1.15,2013-03-20 17:02:00,
2013-03-20 10:07:00,58.3,55.1,30.19,SE,132,3.0,15.0,89,0.00,,,0.19,Wunderground v.1.15,2013-03-20 17:07:00,
2013-03-20 10:12:00,58.5,54.6,30.20,SE,141,4.0,14.0,87,0.00,,,0.19,Wunderground v.1.15,2013-03-20 17:12:00,
2013-03-20 10:17:00,58.7,54.8,30.20,ESE,107,12.0,14.0,87,0.00,,,0.19,Wunderground v.1.15,2013-03-20 17:17:00,
2013-03-20 10:22:00,59.0,55.1,30.20,SSE,157,4.0,12.0,87,0.00,,,0.19,Wunderground v.1.15,2013-03-20 17:22:00,
2013-03-20 10:27:00,59.0,54.8,30.20,SE,133,3.0,14.0,86,0.00,,,0.19,Wunderground v.1.15,2013-03-20 17:27:00,
2013-03-20 10:32:00,59.0,54.5,30.20,SSE,167,9.0,11.0,85,0.00,,,0.19,Wunderground v.1.15,2013-03-20 17:32:00,
2013-03-20 10:37:00,59.0,54.5,30.20,SE,138,10.0,13.0,85,0.00,,,0.19,Wunderground v.1.15,2013-03-20 17:37:00,
2013-03-20 10:42:00,59.3,54.8,30.20,ESE,121,3.0,12.0,85,0.00,,,0.19,Wunderground v.1.15,2013-03-20 17:42:00,
2013-03-20 10:47:00,59.6,54.8,30.20,SE,125,9.0,13.0,84,0.00,,,0.19,Wunderground v.1.15,2013-03-20 17:47:00,
2013-03-20 10:52:00,59.8,54.6,30.20,ESE,119,5.0,15.0,83,0.00,,,0.19,Wunderground v.1.15,2013-03-20 17:52:00,
2013-03-20 10:57:00,59.9,54.4,30.19,SE,126,12.0,17.0,82,0.00,,,0.20,Wunderground v.1.15,2013-03-20 17:57:00,
2013-03-20 11:02:00,60.1,54.6,30.19,SE,146,9.0,13.0,82,0.00,,,0.20,Wunderground v.1.15,2013-03-20 18:02:00,
2013-03-20 11:07:00,60.2,54.7,30.19,SSE,158,4.0,16.0,82,0.00,,,0.20,Wunderground v.1.15,2013-03-20 18:07:00,
2013-03-20 11:12:00,60.2,54.3,30.19,SSE,161,4.0,13.0,81,0.00,,,0.20,Wunderground v.1.15,2013-03-20 18:12:00,
2013-03-20 11:17:00,60.3,54.4,30.20,SSE,152,6.0,16.0,81,0.00,,,0.20,Wunderground v.1.15,2013-03-20 18:17:00,
2013-03-20 11:22:00,60.4,54.5,30.20,SSE,167,1.0,14.0,81,0.00,,,0.20,Wunderground v.1.15,2013-03-20 18:22:00,
2013-03-20 11:27:00,60.4,54.2,30.20,South,173,3.0,14.0,80,0.00,,,0.20,Wunderground v.1.15,2013-03-20 18:27:00,
2013-03-20 11:32:00,60.4,54.5,30.20,SSE,156,3.0,14.0,81,0.00,,,0.20,Wunderground v.1.15,2013-03-20 18:32:00,
2013-03-20 11:37:00,60.3,54.4,30.21,South,184,3.0,14.0,81,0.00,,,0.21,Wunderground v.1.15,2013-03-20 18:37:00,
2013-03-20 11:42:00,60.3,54.8,30.21,South,180,7.0,9.0,82,0.00,,,0.21,Wunderground v.1.15,2013-03-20 18:42:00,
2013-03-20 11:47:00,60.4,54.5,30.21,South,188,5.0,9.0,81,0.00,,,0.21,Wunderground v.1.15,2013-03-20 18:47:00,
2013-03-20 11:52:00,60.3,54.4,30.21,South,173,6.0,11.0,81,0.00,,,0.21,Wunderground v.1.15,2013-03-20 18:52:00,
2013-03-20 11:57:00,60.3,54.8,30.21,South,186,7.0,11.0,82,0.00,,,0.21,Wunderground v.1.15,2013-03-20 18:57:00,
2013-03-20 12:02:00,60.2,54.7,30.21,South,176,6.0,10.0,82,0.00,,,0.21,Wunderground v.1.15,2013-03-20 19:02:00,
2013-03-20 12:07:00,60.1,54.6,30.21,South,179,6.0,10.0,82,0.00,,,0.21,Wunderground v.1.15,2013-03-20 19:07:00,
2013-03-20 12:12:00,60.0,54.2,30.21,South,189,1.0,10.0,81,0.00,,,0.21,Wunderground v.1.15,2013-03-20 19:12:00,
2013-03-20 12:17:00,60.1,53.9,30.22,SSW,204,10.0,11.0,80,0.00,,,0.21,Wunderground v.1.15,2013-03-20 19:17:00,
2013-03-20 12:22:00,59.9,53.0,30.22,South,182,6.0,14.0,78,0.00,,,0.21,Wunderground v.1.15,2013-03-20 19:22:00,
2013-03-20 12:27:00,59.8,52.6,30.21,South,191,5.0,14.0,77,0.00,,,0.21,Wunderground v.1.15,2013-03-20 19:27:00,
2013-03-20 12:32:00,60.0,53.1,30.22,SSW,202,4.0,6.0,78,0.00,,,0.21,Wunderground v.1.15,2013-03-20 19:32:00,
2013-03-20 12:37:00,60.0,53.5,30.22,SSW,204,9.0,10.0,79,0.00,,,0.21,Wunderground v.1.15,2013-03-20 19:37:00,
2013-03-20 12:42:00,59.7,53.5,30.22,SSW,200,6.0,9.0,80,0.00,,,0.21,Wunderground v.1.15,2013-03-20 19:42:00,
2013-03-20 12:47:00,59.6,53.1,30.21,SSW,206,4.0,14.0,79,0.00,,,0.22,Wunderground v.1.15,2013-03-20 19:47:00,
2013-03-20 12:52:00,59.7,52.5,30.22,South,186,5.0,7.0,77,0.00,,,0.22,Wunderground v.1.15,2013-03-20 19:52:00,
2013-03-20 12:57:00,60.3,53.4,30.22,South,189,6.0,7.0,78,0.00,,,0.22,Wunderground v.1.15,2013-03-20 19:57:00,
2013-03-20 13:02:00,60.8,53.9,30.21,South,189,8.0,11.0,78,0.00,,,0.22,Wunderground v.1.15,2013-03-20 20:02:00,
2013-03-20 13:08:00,60.8,53.5,30.22,SSW,204,3.0,12.0,77,0.00,,,0.23,Wunderground v.1.15,2013-03-20 20:08:00,
2013-03-20 13:13:00,60.3,53.1,30.22,South,190,6.0,11.0,77,0.00,,,0.23,Wunderground v.1.15,2013-03-20 20:13:00,
2013-03-20 13:18:00,60.2,53.7,30.22,SSW,194,14.0,17.0,79,0.00,,,0.23,Wunderground v.1.15,2013-03-20 20:18:00,
2013-03-20 13:23:00,59.1,53.6,30.22,South,190,5.0,12.0,82,0.00,,,0.23,Wunderground v.1.15,2013-03-20 20:23:00,
2013-03-20 13:28:00,58.7,53.5,30.22,South,190,9.0,13.0,83,0.00,,,0.23,Wunderground v.1.15,2013-03-20 20:28:00,
2013-03-20 13:33:00,58.5,53.0,30.22,South,173,4.0,14.0,82,0.00,,,0.24,Wunderground v.1.15,2013-03-20 20:33:00,
2013-03-20 13:38:00,58.0,52.9,30.23,South,175,3.0,15.0,83,0.00,,,0.24,Wunderground v.1.15,2013-03-20 20:38:00,
2013-03-20 13:43:00,57.8,53.3,30.23,South,169,1.0,7.0,85,0.00,,,0.24,Wunderground v.1.15,2013-03-20 20:43:00,
2013-03-20 13:48:00,57.9,53.4,30.23,SSE,153,3.0,7.0,85,0.04,,,0.25,Wunderground v.1.15,2013-03-20 20:48:00,
2013-03-20 13:53:00,58.2,53.7,30.22,SE,136,0.0,6.0,85,0.04,,,0.25,Wunderground v.1.15,2013-03-20 20:53:00,
2013-03-20 13:58:00,58.4,54.2,30.22,SSE,148,4.0,6.0,86,0.04,,,0.25,Wunderground v.1.15,2013-03-20 20:58:00,
2013-03-20 14:03:00,58.5,54.3,30.22,SSE,161,1.0,11.0,86,0.00,,,0.25,Wunderground v.1.15,2013-03-20 21:03:00,
2013-03-20 14:08:00,58.6,54.4,30.22,SSE,155,1.0,11.0,86,0.00,,,0.25,Wunderground v.1.15,2013-03-20 21:08:00,
2013-03-20 14:13:00,59.0,55.1,30.22,SSE,159,2.0,10.0,87,0.00,,,0.26,Wunderground v.1.15,2013-03-20 21:13:00,
2013-03-20 14:18:00,59.0,54.5,30.22,South,179,5.0,15.0,85,0.00,,,0.26,Wunderground v.1.15,2013-03-20 21:18:00,
2013-03-20 14:23:00,59.0,54.5,30.21,South,182,6.0,13.0,85,0.00,,,0.26,Wunderground v.1.15,2013-03-20 21:23:00,
2013-03-20 14:28:00,59.0,54.5,30.21,South,169,7.0,13.0,85,0.00,,,0.26,Wunderground v.1.15,2013-03-20 21:28:00,
2013-03-20 14:33:00,59.3,54.8,30.21,South,188,7.0,11.0,85,0.00,,,0.27,Wunderground v.1.15,2013-03-20 21:33:00,
2013-03-20 14:38:00,59.6,55.1,30.21,South,175,5.0,14.0,85,0.00,,,0.27,Wunderground v.1.15,2013-03-20 21:38:00,
2013-03-20 14:43:00,59.8,54.6,30.21,South,169,4.0,14.0,83,0.00,,,0.27,Wunderground v.1.15,2013-03-20 21:43:00,
2013-03-20 14:48:00,60.2,55.0,30.21,South,175,7.0,14.0,83,0.00,,,0.27,Wunderground v.1.15,2013-03-20 21:48:00,
2013-03-20 14:53:00,60.1,54.9,30.21,South,183,4.0,14.0,83,0.00,,,0.27,Wunderground v.1.15,2013-03-20 21:53:00,
2013-03-20 14:58:00,60.2,55.0,30.20,SSW,198,4.0,14.0,83,0.00,,,0.27,Wunderground v.1.15,2013-03-20 21:58:00,
2013-03-20 15:03:00,60.3,55.1,30.20,South,180,3.0,14.0,83,0.00,,,0.27,Wunderground v.1.15,2013-03-20 22:03:00,
2013-03-20 15:08:00,60.3,54.8,30.20,South,171,6.0,14.0,82,0.00,,,0.28,Wunderground v.1.15,2013-03-20 22:08:00,
2013-03-20 15:13:00,60.5,55.0,30.20,South,188,7.0,13.0,82,0.00,,,0.28,Wunderground v.1.15,2013-03-20 22:13:00,
2013-03-20 15:18:00,60.6,54.7,30.20,South,189,7.0,13.0,81,0.00,,,0.28,Wunderground v.1.15,2013-03-20 22:18:00,
2013-03-20 15:23:00,60.8,54.9,30.20,South,184,10.0,14.0,81,0.00,,,0.28,Wunderground v.1.15,2013-03-20 22:23:00,
2013-03-20 15:28:00,60.8,54.6,30.20,South,180,8.0,14.0,80,0.00,,,0.29,Wunderground v.1.15,2013-03-20 22:28:00,
2013-03-20 15:33:00,60.5,54.3,30.20,South,179,5.0,15.0,80,0.00,,,0.29,Wunderground v.1.15,2013-03-20 22:33:00,
2013-03-20 15:38:00,60.9,55.0,30.20,SW,216,5.0,15.0,81,0.00,,,0.29,Wunderground v.1.15,2013-03-20 22:38:00,
2013-03-20 15:43:00,60.7,54.5,30.20,SSW,195,7.0,15.0,80,0.00,,,0.29,Wunderground v.1.15,2013-03-20 22:43:00,
2013-03-20 15:48:00,60.6,54.7,30.20,SSW,207,10.0,15.0,81,0.00,,,0.29,Wunderground v.1.15,2013-03-20 22:48:00,
2013-03-20 15:53:00,60.7,54.8,30.20,SSW,206,9.0,13.0,81,0.00,,,0.29,Wunderground v.1.15,2013-03-20 22:53:00,
2013-03-20 15:58:00,61.2,55.3,30.20,SSW,209,6.0,13.0,81,0.00,,,0.29,Wunderground v.1.15,2013-03-20 22:58:00,
2013-03-20 16:03:00,61.4,55.2,30.20,South,191,5.0,11.0,80,0.00,,,0.29,Wunderground v.1.15,2013-03-20 23:03:00,
2013-03-20 16:08:00,60.9,54.7,30.20,South,188,10.0,14.0,80,0.00,,,0.30,Wunderground v.1.15,2013-03-20 23:08:00,
2013-03-20 16:13:00,61.0,55.1,30.20,SSW,208,5.0,15.0,81,0.00,,,0.30,Wunderground v.1.15,2013-03-20 23:13:00,
2013-03-20 16:18:00,60.9,55.0,30.20,SSW,212,7.0,15.0,81,0.00,,,0.30,Wunderground v.1.15,2013-03-20 23:18:00,
2013-03-20 16:23:00,60.9,55.0,30.20,SSW,200,6.0,11.0,81,0.00,,,0.30,Wunderground v.1.15,2013-03-20 23:23:00,
2013-03-20 16:28:00,61.5,55.6,30.19,SW,222,11.0,15.0,81,0.00,,,0.30,Wunderground v.1.15,2013-03-20 23:28:00,
2013-03-20 16:33:00,61.3,54.7,30.19,SW,226,12.0,14.0,79,0.00,,,0.30,Wunderground v.1.15,2013-03-20 23:33:00,
2013-03-20 16:38:00,61.2,55.0,30.19,SSW,209,12.0,15.0,80,0.00,,,0.30,Wunderground v.1.15,2013-03-20 23:38:00,
2013-03-20 16:43:00,61.2,55.0,30.19,SSW,212,9.0,15.0,80,0.00,,,0.30,Wunderground v.1.15,2013-03-20 23:43:00,
2013-03-20 16:48:00,61.4,55.2,30.18,SSW,206,8.0,15.0,80,0.00,,,0.30,Wunderground v.1.15,2013-03-20 23:48:00,
2013-03-20 16:53:00,61.5,55.6,30.18,SSW,202,3.0,14.0,81,0.00,,,0.30,Wunderground v.1.15,2013-03-20 23:53:00,
2013-03-20 16:58:00,61.5,55.3,30.18,SSW,207,10.0,14.0,80,0.00,,,0.30,Wunderground v.1.15,2013-03-20 23:58:00,
2013-03-20 17:03:00,61.6,55.0,30.18,SSW,193,6.0,15.0,79,0.00,,,0.30,Wunderground v.1.15,2013-03-21 00:03:00,
2013-03-20 17:09:00,61.6,55.4,30.18,SW,216,6.0,15.0,80,0.00,,,0.30,Wunderground v.1.15,2013-03-21 00:09:00,
2013-03-20 17:14:00,61.2,55.0,30.18,SSW,208,8.0,14.0,80,0.00,,,0.30,Wunderground v.1.15,2013-03-21 00:14:00,
2013-03-20 17:19:00,61.0,55.1,30.18,South,190,10.0,14.0,81,0.00,,,0.30,Wunderground v.1.15,2013-03-21 00:19:00,
2013-03-20 17:24:00,60.8,54.9,30.18,South,188,11.0,16.0,81,0.00,,,0.30,Wunderground v.1.15,2013-03-21 00:24:00,
2013-03-20 17:29:00,60.8,54.9,30.18,SSW,195,11.0,16.0,81,0.00,,,0.30,Wunderground v.1.15,2013-03-21 00:29:00,
2013-03-20 17:34:00,60.9,55.0,30.18,South,184,8.0,11.0,81,0.00,,,0.30,Wunderground v.1.15,2013-03-21 00:34:00,
2013-03-20 17:39:00,60.8,54.9,30.19,SSW,194,6.0,13.0,81,0.00,,,0.30,Wunderground v.1.15,2013-03-21 00:39:00,
2013-03-20 17:44:00,60.9,55.0,30.19,South,184,7.0,12.0,81,0.00,,,0.30,Wunderground v.1.15,2013-03-21 00:44:00,
2013-03-20 17:49:00,60.9,55.0,30.19,SSW,198,5.0,15.0,81,0.00,,,0.30,Wunderground v.1.15,2013-03-21 00:49:00,
2013-03-20 17:54:00,60.9,55.0,30.19,SSW,196,8.0,11.0,81,0.00,,,0.30,Wunderground v.1.15,2013-03-21 00:54:00,
2013-03-20 17:59:00,60.7,54.8,30.19,SSW,192,5.0,13.0,81,0.00,,,0.30,Wunderground v.1.15,2013-03-21 00:59:00,
2013-03-20 18:04:00,60.8,55.3,30.19,South,187,4.0,11.0,82,0.00,,,0.30,Wunderground v.1.15,2013-03-21 01:04:00,
2013-03-20 18:09:00,60.7,54.8,30.19,SSW,206,6.0,13.0,81,0.00,,,0.30,Wunderground v.1.15,2013-03-21 01:09:00,
2013-03-20 18:14:00,60.5,54.6,30.19,SSW,202,8.0,12.0,81,0.00,,,0.30,Wunderground v.1.15,2013-03-21 01:14:00,
2013-03-20 18:19:00,60.4,54.5,30.19,SSW,197,4.0,12.0,81,0.00,,,0.30,Wunderground v.1.15,2013-03-21 01:19:00,
2013-03-20 18:24:00,60.3,54.8,30.19,SSW,194,5.0,14.0,82,0.00,,,0.30,Wunderground v.1.15,2013-03-21 01:24:00,
2013-03-20 18:29:00,60.2,54.7,30.19,SW,216,9.0,14.0,82,0.00,,,0.30,Wunderground v.1.15,2013-03-21 01:29:00,
2013-03-20 18:34:00,60.1,54.6,30.20,South,189,6.0,12.0,82,0.00,,,0.31,Wunderground v.1.15,2013-03-21 01:34:00,
2013-03-20 18:39:00,60.1,54.6,30.20,South,185,7.0,12.0,82,0.00,,,0.31,Wunderground v.1.15,2013-03-21 01:39:00,
2013-03-20 18:44:00,60.0,54.2,30.20,SW,225,6.0,13.0,81,0.00,,,0.31,Wunderground v.1.15,2013-03-21 01:44:00,
2013-03-20 18:49:00,59.8,54.3,30.20,SSW,196,5.0,13.0,82,0.00,,,0.31,Wunderground v.1.15,2013-03-21 01:49:00,
2013-03-20 18:54:00,59.6,54.1,30.19,South,186,10.0,12.0,82,0.00,,,0.31,Wunderground v.1.15,2013-03-21 01:54:00,
2013-03-20 18:59:00,59.5,54.0,30.20,SSW,196,6.0,12.0,82,0.00,,,0.31,Wunderground v.1.15,2013-03-21 01:59:00,
2013-03-20 19:04:00,59.4,54.2,30.20,South,187,8.0,13.0,83,0.00,,,0.31,Wunderground v.1.15,2013-03-21 02:04:00,
2013-03-20 19:09:00,59.4,54.2,30.20,SSW,198,4.0,13.0,83,0.00,,,0.31,Wunderground v.1.15,2013-03-21 02:09:00,
2013-03-20 19:14:00,59.3,54.1,30.19,SSW,203,5.0,12.0,83,0.00,,,0.31,Wunderground v.1.15,2013-03-21 02:14:00,
2013-03-20 19:19:00,59.0,53.8,30.19,SSW,197,4.0,12.0,83,0.00,,,0.31,Wunderground v.1.15,2013-03-21 02:19:00,
2013-03-20 19:24:00,59.0,53.8,30.19,SSW,195,4.0,10.0,83,0.00,,,0.31,Wunderground v.1.15,2013-03-21 02:24:00,
2013-03-20 19:29:00,59.0,53.8,30.19,SSW,198,6.0,10.0,83,0.00,,,0.31,Wunderground v.1.15,2013-03-21 02:29:00,
2013-03-20 19:34:00,58.7,53.5,30.19,SSW,196,4.0,11.0,83,0.00,,,0.31,Wunderground v.1.15,2013-03-21 02:34:00,
2013-03-20 19:39:00,58.5,53.7,30.20,SSW,200,7.0,11.0,84,0.00,,,0.31,Wunderground v.1.15,2013-03-21 02:39:00,
2013-03-20 19:44:00,58.6,53.8,30.20,SSW,208,7.0,9.0,84,0.00,,,0.31,Wunderground v.1.15,2013-03-21 02:44:00,
2013-03-20 19:49:00,58.6,53.5,30.20,SSW,200,9.0,13.0,83,0.00,,,0.31,Wunderground v.1.15,2013-03-21 02:49:00,
2013-03-20 19:54:00,58.5,53.4,30.19,SSW,206,5.0,9.0,83,0.00,,,0.31,Wunderground v.1.15,2013-03-21 02:54:00,
2013-03-20 19:59:00,58.4,53.6,30.19,SSW,195,6.0,11.0,84,0.00,,,0.31,Wunderground v.1.15,2013-03-21 02:59:00,
2013-03-20 20:04:00,58.3,53.5,30.19,SSW,198,5.0,12.0,84,0.00,,,0.31,Wunderground v.1.15,2013-03-21 03:04:00,
2013-03-20 20:09:00,58.2,53.4,30.19,South,188,11.0,12.0,84,0.00,,,0.31,Wunderground v.1.15,2013-03-21 03:09:00,
2013-03-20 20:14:00,58.3,53.5,30.19,SSW,206,3.0,13.0,84,0.00,,,0.31,Wunderground v.1.15,2013-03-21 03:14:00,
2013-03-20 20:19:00,58.1,53.3,30.19,SSW,197,5.0,6.0,84,0.00,,,0.31,Wunderground v.1.15,2013-03-21 03:19:00,
2013-03-20 20:25:00,57.9,53.1,30.19,South,191,4.0,12.0,84,0.00,,,0.31,Wunderground v.1.15,2013-03-21 03:25:00,
2013-03-20 20:30:00,57.7,53.2,30.20,South,183,6.0,7.0,85,0.00,,,0.31,Wunderground v.1.15,2013-03-21 03:30:00,
2013-03-20 20:35:00,57.6,53.1,30.20,South,186,6.0,13.0,85,0.00,,,0.31,Wunderground v.1.15,2013-03-21 03:35:00,
2013-03-20 20:40:00,57.4,52.9,30.20,South,186,7.0,7.0,85,0.00,,,0.31,Wunderground v.1.15,2013-03-21 03:40:00,
2013-03-20 20:45:00,57.2,53.0,30.20,South,188,7.0,11.0,86,0.00,,,0.31,Wunderground v.1.15,2013-03-21 03:45:00,
2013-03-20 20:50:00,57.0,52.9,30.20,SSW,192,6.0,7.0,86,0.00,,,0.31,Wunderground v.1.15,2013-03-21 03:50:00,
2013-03-20 20:55:00,56.8,52.7,30.20,SSW,198,4.0,12.0,86,0.00,,,0.31,Wunderground v.1.15,2013-03-21 03:55:00,
2013-03-20 21:00:00,56.6,52.5,30.21,SSW,197,5.0,5.0,86,0.00,,,0.31,Wunderground v.1.15,2013-03-21 04:00:00,
2013-03-20 21:05:00,56.4,52.6,30.21,SSW,196,3.0,9.0,87,0.00,,,0.31,Wunderground v.1.15,2013-03-21 04:05:00,
2013-03-20 21:10:00,56.2,52.4,30.21,SSW,196,6.0,6.0,87,0.00,,,0.31,Wunderground v.1.15,2013-03-21 04:10:00,
2013-03-20 21:15:00,56.0,52.2,30.20,SSW,196,3.0,7.0,87,0.00,,,0.31,Wunderground v.1.15,2013-03-21 04:15:00,
2013-03-20 21:20:00,55.8,52.0,30.21,SSW,198,3.0,5.0,87,0.00,,,0.31,Wunderground v.1.15,2013-03-21 04:20:00,
2013-03-20 21:25:00,55.6,51.8,30.21,SSW,198,3.0,5.0,87,0.00,,,0.31,Wunderground v.1.15,2013-03-21 04:25:00,
2013-03-20 21:30:00,55.6,51.8,30.21,SSW,198,5.0,6.0,87,0.00,,,0.31,Wunderground v.1.15,2013-03-21 04:30:00,
2013-03-20 21:35:00,55.4,51.6,30.21,SSW,207,2.0,7.0,87,0.00,,,0.31,Wunderground v.1.15,2013-03-21 04:35:00,
2013-03-20 21:40:00,55.3,51.5,30.21,SSW,211,6.0,6.0,87,0.00,,,0.31,Wunderground v.1.15,2013-03-21 04:40:00,
2013-03-20 21:45:00,55.1,51.3,30.21,SSW,212,3.0,6.0,87,0.00,,,0.31,Wunderground v.1.15,2013-03-21 04:45:00,
2013-03-20 21:51:00,54.7,50.9,30.21,SSW,206,6.0,6.0,87,0.00,,,0.31,Wunderground v.1.15,2013-03-21 04:51:00,
2013-03-20 21:56:00,54.6,50.8,30.21,SSW,200,3.0,7.0,87,0.00,,,0.31,Wunderground v.1.15,2013-03-21 04:56:00,
2013-03-20 22:01:00,54.4,50.6,30.21,SSW,201,3.0,4.0,87,0.00,,,0.31,Wunderground v.1.15,2013-03-21 05:01:00,
2013-03-20 22:06:00,54.2,50.4,30.21,SSW,200,3.0,4.0,87,0.00,,,0.31,Wunderground v.1.15,2013-03-21 05:06:00,
2013-03-20 22:11:00,53.7,50.2,30.21,SSW,200,3.0,4.0,88,0.00,,,0.31,Wunderground v.1.15,2013-03-21 05:11:00,
2013-03-20 22:16:00,53.7,50.2,30.21,SSW,204,6.0,7.0,88,0.00,,,0.31,Wunderground v.1.15,2013-03-21 05:16:00,
2013-03-20 22:21:00,53.8,50.0,30.22,SSW,212,5.0,6.0,87,0.00,,,0.31,Wunderground v.1.15,2013-03-21 05:21:00,
2013-03-20 22:26:00,53.6,49.8,30.22,SW,215,3.0,10.0,87,0.00,,,0.31,Wunderground v.1.15,2013-03-21 05:26:00,
2013-03-20 22:31:00,53.5,49.7,30.21,SSW,213,4.0,7.0,87,0.00,,,0.31,Wunderground v.1.15,2013-03-21 05:31:00,
2013-03-20 22:36:00,53.3,49.5,30.22,SSW,211,5.0,11.0,87,0.00,,,0.31,Wunderground v.1.15,2013-03-21 05:36:00,
2013-03-20 22:42:00,53.1,49.3,30.22,SSW,211,7.0,7.0,87,0.00,,,0.31,Wunderground v.1.15,2013-03-21 05:42:00,
2013-03-20 22:47:00,53.0,49.2,30.22,SSW,212,3.0,7.0,87,0.00,,,0.31,Wunderground v.1.15,2013-03-21 05:47:00,
2013-03-20 22:52:00,52.9,49.1,30.22,SSW,211,3.0,9.0,87,0.00,,,0.31,Wunderground v.1.15,2013-03-21 05:52:00,
2013-03-20 22:57:00,52.7,48.9,30.22,SSW,212,3.0,9.0,87,0.00,,,0.31,Wunderground v.1.15,2013-03-21 05:57:00,
2013-03-20 23:02:00,52.6,49.1,30.21,SSW,210,2.0,6.0,88,0.00,,,0.31,Wunderground v.1.15,2013-03-21 06:02:00,
2013-03-20 23:07:00,52.4,48.9,30.22,SSW,210,1.0,6.0,88,0.00,,,0.31,Wunderground v.1.15,2013-03-21 06:07:00,
2013-03-20 23:12:00,52.1,48.7,30.21,SSW,210,2.0,3.0,88,0.00,,,0.31,Wunderground v.1.15,2013-03-21 06:12:00,
2013-03-20 23:17:00,51.9,48.5,30.22,SSW,210,2.0,4.0,88,0.00,,,0.31,Wunderground v.1.15,2013-03-21 06:17:00,
2013-03-20 23:22:00,51.7,48.3,30.21,SSW,210,4.0,4.0,88,0.00,,,0.31,Wunderground v.1.15,2013-03-21 06:22:00,
2013-03-20 23:27:00,51.5,48.1,30.22,SSW,210,0.0,4.0,88,0.00,,,0.31,Wunderground v.1.15,2013-03-21 06:27:00,
2013-03-20 23:32:00,51.4,48.3,30.21,SSW,210,1.0,2.0,89,0.00,,,0.31,Wunderground v.1.15,2013-03-21 06:32:00,
2013-03-20 23:37:00,51.2,48.1,30.21,SSW,210,3.0,4.0,89,0.00,,,0.31,Wunderground v.1.15,2013-03-21 06:37:00,
2013-03-20 23:43:00,51.1,48.0,30.21,SSW,210,1.0,2.0,89,0.00,,,0.31,Wunderground v.1.15,2013-03-21 06:43:00,
2013-03-20 23:48:00,51.2,48.1,30.21,SSW,210,2.0,4.0,89,0.00,,,0.31,Wunderground v.1.15,2013-03-21 06:48:00,
2013-03-20 23:53:00,50.6,47.5,30.20,SSW,210,4.0,4.0,89,0.00,,,0.31,Wunderground v.1.15,2013-03-21 06:53:00,
2013-03-20 23:58:00,50.4,47.3,30.20,SSW,210,0.0,5.0,89,0.00,,,0.31,Wunderground v.1.15,2013-03-21 06:58:00,